createdAt,value
2023-02-27T05:13:30.917Z,73.38
2023-02-27T05:14:30.845Z,74.31
2023-02-27T05:15:30.894Z,72.23
2023-02-27T05:16:30.870Z,73.56
2023-02-27T05:17:30.831Z,74.68
2023-02-27T05:18:30.830Z,74.39
2023-02-27T05:19:30.825Z,73.03
2023-02-27T05:20:30.793Z,74.66
2023-02-27T05:21:30.876Z,75.75
2023-02-27T05:22:30.751Z,75.77
2023-02-27T05:23:30.725Z,73.95
2023-02-27T05:24:30.741Z,76.21
2023-02-27T05:25:30.774Z,73.85
2023-02-27T05:26:30.766Z,75.64
2023-02-27T05:27:30.690Z,74.43
2023-02-27T05:28:30.713Z,74.20
2023-02-27T05:29:30.738Z,75.09
2023-02-27T05:30:30.693Z,76.17
2023-02-27T05:31:30.830Z,74.32
2023-02-27T05:32:30.743Z,76.35
2023-02-27T05:33:30.657Z,76.44
2023-02-27T05:34:30.622Z,76.83
2023-02-27T05:35:30.674Z,77.16
2023-02-27T05:36:30.554Z,77.95
2023-02-27T05:37:30.606Z,76.32
2023-02-27T05:38:30.597Z,77.43
2023-02-27T05:39:30.552Z,76.11
2023-02-27T05:40:31.567Z,77.29
2023-02-27T05:41:30.567Z,79.52
2023-02-27T05:42:30.540Z,77.98
2023-02-27T05:43:30.533Z,78.52
2023-02-27T05:44:30.545Z,76.72
2023-02-27T05:45:30.518Z,78.17
2023-02-27T05:46:31.566Z,77.48
2023-02-27T05:47:30.475Z,76.45
2023-02-27T05:48:30.486Z,77.10
2023-02-27T05:49:30.475Z,77.37
2023-02-27T05:50:30.454Z,76.78
2023-02-27T05:51:30.439Z,77.53
2023-02-27T05:52:30.399Z,75.98
2023-02-27T05:53:30.436Z,79.18
2023-02-27T05:54:30.362Z,79.01
2023-02-27T05:55:30.386Z,76.39
2023-02-27T05:56:30.381Z,76.41
2023-02-27T05:57:30.388Z,76.39
2023-02-27T05:58:30.372Z,78.29
2023-02-27T05:59:30.288Z,76.56
2023-02-27T06:00:31.321Z,75.75
2023-02-27T06:01:30.342Z,75.95
2023-02-27T06:02:30.373Z,75.94
2023-02-27T06:03:30.368Z,77.99
2023-02-27T06:04:30.284Z,77.16
2023-02-27T06:05:30.240Z,75.20
2023-02-27T06:06:30.241Z,76.44
2023-02-27T06:07:30.253Z,76.91
2023-02-27T06:08:30.210Z,77.64
2023-02-27T06:09:30.213Z,76.93
2023-02-27T06:10:30.216Z,76.93
2023-02-27T06:11:30.217Z,76.50
2023-02-27T06:12:30.230Z,77.64
2023-02-27T06:13:30.224Z,77.78
2023-02-27T06:14:30.224Z,78.85
2023-02-27T06:15:30.154Z,76.40
2023-02-27T06:16:30.679Z,78.22
2023-02-27T06:17:30.123Z,78.13
2023-02-27T06:18:30.113Z,78.02
2023-02-27T06:19:30.195Z,77.75
2023-02-27T06:20:30.095Z,78.32
2023-02-27T06:21:30.088Z,78.42
2023-02-27T06:22:30.074Z,79.57
2023-02-27T06:23:30.067Z,78.27
2023-02-27T06:24:30.092Z,78.21
2023-02-27T06:25:30.069Z,78.45
2023-02-27T06:26:30.122Z,77.87
2023-02-27T06:27:30.018Z,78.63
2023-02-27T06:28:30.002Z,78.34
2023-02-27T06:29:29.995Z,78.27
2023-02-27T06:30:29.997Z,78.24
2023-02-27T06:31:29.978Z,77.75
2023-02-27T06:32:29.938Z,79.08
2023-02-27T06:33:29.974Z,79.12
2023-02-27T06:34:29.952Z,79.12
2023-02-27T06:35:29.919Z,79.17
2023-02-27T06:36:30.223Z,77.24
2023-02-27T06:37:29.903Z,77.14
2023-02-27T06:38:29.885Z,78.22
2023-02-27T06:39:29.901Z,76.88
2023-02-27T06:40:29.866Z,77.99
2023-02-27T06:41:29.848Z,78.58
2023-02-27T06:42:29.848Z,78.99
2023-02-27T06:43:29.814Z,78.99
2023-02-27T06:44:29.820Z,77.68
2023-02-27T06:45:29.814Z,78.36
2023-02-27T06:46:30.019Z,77.96
2023-02-27T06:47:29.759Z,77.90
2023-02-27T06:48:29.785Z,77.54
2023-02-27T06:49:29.756Z,77.74
2023-02-27T06:50:29.762Z,78.20
2023-02-27T06:51:29.772Z,78.92
2023-02-27T06:52:29.749Z,76.93
2023-02-27T06:53:29.753Z,77.74
2023-02-27T06:54:29.700Z,77.43
2023-02-27T06:55:29.689Z,76.70
2023-02-27T06:56:29.786Z,76.35
2023-02-27T06:57:29.678Z,75.99
2023-02-27T06:58:29.696Z,76.09
2023-02-27T06:59:29.685Z,76.85
2023-02-27T07:00:29.643Z,75.31
2023-02-27T07:01:29.740Z,74.39
2023-02-27T07:02:29.641Z,75.46
2023-02-27T07:03:29.610Z,77.81
2023-02-27T07:04:29.669Z,76.00
2023-02-27T07:05:29.588Z,75.39
2023-02-27T07:07:35.316Z,74.37
2023-02-27T07:07:36.017Z,74.96
2023-02-27T07:08:30.526Z,75.09
2023-02-27T07:09:29.547Z,73.78
2023-02-27T07:10:29.553Z,73.96
2023-02-27T07:11:29.505Z,75.39
2023-02-27T07:12:29.475Z,77.13
2023-02-27T07:13:29.487Z,76.17
2023-02-27T07:14:29.485Z,77.98
2023-02-27T07:15:29.520Z,77.28
2023-02-27T07:16:29.666Z,74.48
2023-02-27T07:17:29.471Z,75.29
2023-02-27T07:18:29.402Z,77.16
2023-02-27T07:19:29.489Z,75.99
2023-02-27T07:20:29.427Z,75.75
2023-02-27T07:21:30.424Z,75.37
2023-02-27T07:22:29.427Z,75.95
2023-02-27T07:23:29.381Z,75.65
2023-02-27T07:24:29.382Z,73.90
2023-02-27T07:25:29.370Z,74.95
2023-02-27T07:26:30.405Z,74.06
2023-02-27T07:27:29.328Z,74.65
2023-02-27T07:28:29.430Z,75.16
2023-02-27T07:29:29.341Z,72.94
2023-02-27T07:30:29.322Z,74.55
2023-02-27T07:31:29.405Z,75.67
2023-02-27T07:32:29.346Z,76.07
2023-02-27T07:33:29.331Z,76.52
2023-02-27T07:34:29.267Z,75.98
2023-02-27T07:35:29.288Z,76.55
2023-02-27T07:36:29.442Z,74.66
2023-02-27T07:37:29.236Z,73.53
2023-02-27T07:38:29.252Z,75.13
2023-02-27T07:39:29.244Z,74.89
2023-02-27T07:40:29.197Z,73.69
2023-02-27T07:41:30.977Z,75.73
2023-02-27T07:43:01.595Z,75.05
2023-02-27T07:43:29.220Z,73.94
2023-02-27T07:44:30.241Z,74.47
2023-02-27T07:45:29.200Z,72.64
2023-02-27T07:46:29.592Z,75.12
2023-02-27T07:47:29.204Z,73.73
2023-02-27T07:48:29.165Z,73.46
2023-02-27T07:49:29.130Z,73.43
2023-02-27T07:50:29.106Z,73.23
2023-02-27T07:51:29.172Z,71.95
2023-02-27T07:53:29.098Z,72.91
2023-02-27T07:54:29.049Z,75.25
2023-02-27T07:55:29.213Z,75.58
2023-02-27T07:56:30.431Z,75.69
2023-02-27T07:57:29.152Z,73.50
2023-02-27T07:58:29.080Z,71.48
2023-02-27T07:59:29.042Z,73.24
2023-02-27T08:00:29.003Z,72.37
2023-02-27T08:01:29.054Z,74.17
2023-02-27T08:02:29.060Z,73.32
2023-02-27T08:03:28.996Z,72.40
2023-02-27T08:04:29.052Z,72.11
2023-02-27T08:05:29.924Z,72.14
2023-02-27T08:06:29.285Z,72.99
2023-02-27T08:07:28.934Z,72.45
2023-02-27T08:08:28.979Z,73.30
2023-02-27T08:09:28.902Z,73.00
2023-02-27T08:10:29.028Z,72.95
2023-02-27T08:11:29.293Z,75.26
2023-02-27T08:12:28.854Z,74.68
2023-02-27T08:13:58.959Z,72.16
2023-02-27T08:14:30.865Z,73.32
2023-02-27T08:15:28.944Z,74.80
2023-02-27T08:16:31.037Z,75.38
2023-02-27T08:17:28.809Z,72.41
2023-02-27T08:18:28.789Z,71.13
2023-02-27T08:19:28.756Z,74.27
2023-02-27T08:20:28.794Z,70.94
2023-02-27T08:21:29.176Z,70.87
2023-02-27T08:22:28.742Z,73.12
2023-02-27T08:23:28.759Z,73.35
2023-02-27T08:24:28.679Z,71.49
2023-02-27T08:25:28.721Z,72.43
2023-02-27T08:26:29.151Z,71.63
2023-02-27T08:27:28.659Z,70.83
2023-02-27T08:28:28.661Z,72.74
2023-02-27T08:29:28.681Z,71.93
2023-02-27T08:30:28.628Z,72.25
2023-02-27T08:31:28.725Z,73.75
2023-02-27T08:32:28.723Z,72.23
2023-02-27T08:33:28.607Z,72.21
2023-02-27T08:34:28.614Z,71.61
2023-02-27T08:35:28.648Z,73.17
2023-02-27T08:36:28.843Z,71.75
2023-02-27T08:37:28.591Z,73.84
2023-02-27T08:38:28.553Z,74.04
2023-02-27T08:39:28.571Z,75.00
2023-02-27T08:40:28.554Z,70.64
2023-02-27T08:41:28.574Z,71.45
2023-02-27T08:42:28.516Z,74.37
2023-02-27T08:43:28.529Z,71.88
2023-02-27T08:44:28.542Z,72.35
2023-02-27T08:45:28.534Z,73.81
2023-02-27T08:46:28.876Z,72.46
2023-02-27T08:47:28.471Z,72.88
2023-02-27T08:48:28.438Z,73.45
2023-02-27T08:49:28.408Z,72.00
2023-02-27T08:50:28.501Z,70.80
2023-02-27T08:51:28.905Z,70.18
2023-02-27T08:52:28.433Z,70.30
2023-02-27T08:53:28.532Z,71.40
2023-02-27T08:54:28.386Z,72.93
2023-02-27T08:55:28.394Z,74.49
2023-02-27T08:56:28.702Z,73.70
2023-02-27T08:57:28.381Z,72.98
2023-02-27T08:58:28.342Z,69.67
2023-02-27T08:59:28.309Z,69.86
2023-02-27T09:00:28.330Z,70.76
2023-02-27T09:01:28.843Z,71.22
2023-02-27T09:02:29.332Z,70.28
2023-02-27T09:03:28.302Z,73.30
2023-02-27T09:04:28.277Z,69.83
2023-02-27T09:05:28.295Z,73.22
2023-02-27T09:06:28.588Z,71.77
2023-02-27T09:07:28.251Z,74.41
2023-02-27T09:08:28.298Z,71.11
2023-02-27T09:09:28.262Z,71.44
2023-02-27T09:10:28.238Z,70.44
2023-02-27T09:11:28.521Z,71.89
2023-02-27T09:12:28.188Z,73.52
2023-02-27T09:13:28.188Z,71.20
2023-02-27T09:14:28.132Z,74.40
2023-02-27T09:15:28.957Z,73.19
2023-02-27T09:16:28.656Z,70.70
2023-02-27T09:17:28.189Z,71.83
2023-02-27T09:18:28.140Z,73.43
2023-02-27T09:19:29.441Z,70.47
2023-02-27T09:20:29.693Z,71.73
2023-02-27T09:21:28.635Z,71.66
2023-02-27T09:22:28.600Z,73.17
2023-02-27T09:23:28.446Z,70.94
2023-02-27T09:24:28.009Z,69.80
2023-02-27T09:25:28.055Z,72.07
2023-02-27T09:26:41.977Z,71.90
2023-02-27T09:27:29.999Z,72.75
2023-02-27T09:28:27.971Z,71.00
2023-02-27T09:29:27.960Z,73.17
2023-02-27T09:30:28.810Z,71.51
2023-02-27T09:31:30.001Z,70.27
2023-02-27T09:32:28.292Z,72.62
2023-02-27T09:33:29.245Z,72.64
2023-02-27T09:34:28.973Z,72.42
2023-02-27T09:35:28.005Z,73.39
2023-02-27T09:36:28.279Z,69.52
2023-02-27T09:37:27.986Z,72.61
2023-02-27T09:38:27.916Z,73.57
2023-02-27T09:39:27.996Z,75.04
2023-02-27T09:40:27.881Z,74.61
2023-02-27T09:41:28.270Z,73.89
2023-02-27T09:42:27.875Z,73.08
2023-02-27T09:43:27.891Z,73.57
2023-02-27T09:44:43.509Z,70.33
2023-02-27T09:45:31.269Z,71.17
2023-02-27T09:46:28.191Z,72.89
2023-02-27T09:47:27.825Z,73.67
2023-02-27T09:48:28.597Z,71.89
2023-02-27T09:49:27.835Z,70.71
2023-02-27T09:50:27.869Z,71.74
2023-02-27T09:51:28.475Z,71.88
2023-02-27T09:52:27.792Z,70.02
2023-02-27T09:53:27.771Z,71.04
2023-02-27T09:54:28.055Z,74.03
2023-02-27T09:55:28.715Z,73.07
2023-02-27T09:56:28.338Z,72.37
2023-02-27T09:57:27.890Z,70.80
2023-02-27T09:58:28.441Z,71.39
2023-02-27T09:59:27.963Z,70.91
2023-02-27T10:00:27.938Z,71.52
2023-02-27T10:01:29.691Z,71.23
2023-02-27T10:02:29.201Z,71.66
2023-02-27T10:03:28.289Z,68.79
2023-02-27T10:04:28.690Z,70.89
2023-02-27T10:05:29.355Z,71.43
2023-02-27T10:06:29.936Z,74.53
2023-02-27T10:07:29.334Z,68.89
2023-02-27T10:08:27.849Z,71.59
2023-02-27T10:09:28.711Z,70.57
2023-02-27T10:10:27.880Z,71.83
2023-02-27T10:11:27.657Z,73.48
2023-02-27T10:12:27.509Z,73.91
2023-02-27T10:13:27.617Z,73.79
2023-02-27T10:14:27.569Z,69.63
2023-02-27T10:15:27.618Z,70.54
2023-02-27T10:16:27.957Z,71.42
2023-02-27T10:17:28.433Z,71.34
2023-02-27T10:18:29.788Z,69.87
2023-02-27T10:19:29.489Z,74.12
2023-02-27T10:20:29.423Z,70.47
2023-02-27T10:21:36.061Z,69.74
2023-02-27T10:22:29.815Z,70.92
2023-02-27T10:23:27.454Z,73.64
2023-02-27T10:24:27.705Z,70.97
2023-02-27T10:25:32.020Z,70.75
2023-02-27T10:26:28.492Z,72.58
2023-02-27T10:27:27.661Z,71.77
2023-02-27T10:28:28.411Z,69.59
2023-02-27T10:29:27.510Z,69.85
2023-02-27T10:30:34.954Z,69.15
2023-02-27T10:31:30.230Z,71.08
2023-02-27T10:32:27.414Z,71.61
2023-02-27T10:33:28.440Z,71.91
2023-02-27T10:34:28.474Z,73.08
2023-02-27T10:35:27.642Z,73.14
2023-02-27T10:36:34.157Z,72.13
2023-02-27T10:37:29.488Z,71.90
2023-02-27T10:38:27.419Z,66.98
2023-02-27T10:39:27.333Z,70.11
2023-02-27T10:40:27.377Z,69.84
2023-02-27T10:41:29.582Z,69.19
2023-02-27T10:42:27.304Z,71.45
2023-02-27T10:43:27.164Z,73.95
2023-02-27T10:44:27.278Z,72.02
2023-02-27T10:45:27.297Z,73.63
2023-02-27T10:46:27.924Z,72.68
2023-02-27T10:47:27.335Z,72.20
2023-02-27T10:48:27.380Z,72.54
2023-02-27T10:49:27.730Z,70.28
2023-02-27T10:50:27.431Z,73.36
2023-02-27T10:51:27.436Z,71.21
2023-02-27T10:52:27.145Z,69.36
2023-02-27T10:53:27.694Z,72.30
2023-02-27T10:54:27.273Z,71.82
2023-02-27T10:55:27.141Z,72.47
2023-02-27T10:56:27.482Z,73.66
2023-02-27T10:57:28.331Z,73.32
2023-02-27T10:58:28.479Z,73.44
2023-02-27T10:59:27.102Z,68.48
2023-02-27T11:00:27.273Z,69.43
2023-02-27T11:01:27.541Z,70.54
2023-02-27T11:02:27.041Z,70.91
2023-02-27T11:03:27.419Z,72.67
2023-02-27T11:04:27.094Z,72.81
2023-02-27T11:05:27.177Z,71.89
2023-02-27T11:06:26.951Z,73.45
2023-02-27T11:07:27.167Z,73.49
2023-02-27T11:08:27.307Z,71.94
2023-02-27T11:09:26.968Z,71.84
2023-02-27T11:10:26.994Z,71.29
2023-02-27T11:11:27.387Z,74.77
2023-02-27T11:12:26.879Z,72.77
2023-02-27T11:13:26.852Z,71.72
2023-02-27T11:14:26.843Z,71.40
2023-02-27T11:15:27.112Z,72.05
2023-02-27T11:16:26.885Z,71.73
2023-02-27T11:17:26.888Z,70.80
2023-02-27T11:18:26.970Z,72.48
2023-02-27T11:19:27.030Z,68.76
2023-02-27T11:20:26.939Z,70.21
2023-02-27T11:21:27.329Z,68.58
2023-02-27T11:22:26.754Z,72.90
2023-02-27T11:23:26.968Z,73.60
2023-02-27T11:24:26.816Z,70.40
2023-02-27T11:25:26.803Z,72.90
2023-02-27T11:26:26.848Z,69.54
2023-02-27T11:27:26.803Z,71.15
2023-02-27T11:28:26.723Z,70.39
2023-02-27T11:29:26.657Z,70.94
2023-02-27T11:30:26.635Z,71.87
2023-02-27T11:31:27.170Z,71.42
2023-02-27T11:32:26.753Z,69.22
2023-02-27T11:33:26.680Z,72.30
2023-02-27T11:34:26.671Z,70.99
2023-02-27T11:35:26.610Z,73.39
2023-02-27T11:36:26.615Z,71.81
2023-02-27T11:37:26.612Z,72.33
2023-02-27T11:38:26.571Z,70.11
2023-02-27T11:39:26.602Z,72.02
2023-02-27T11:40:26.551Z,71.51
2023-02-27T11:41:26.854Z,73.76
2023-02-27T11:42:26.568Z,71.65
2023-02-27T11:43:26.658Z,71.29
2023-02-27T11:44:50.274Z,67.75
2023-02-27T11:46:13.911Z,74.23
2023-02-27T11:46:43.273Z,72.65
2023-02-27T11:47:27.662Z,71.94
2023-02-27T11:48:26.456Z,71.79
2023-02-27T11:49:26.411Z,73.04
2023-02-27T11:50:26.519Z,71.36
2023-02-27T11:51:26.795Z,72.72
2023-02-27T11:52:27.415Z,70.37
2023-02-27T11:53:26.413Z,70.84
2023-02-27T11:54:26.416Z,72.12
2023-02-27T11:55:26.399Z,71.27
2023-02-27T11:56:26.408Z,71.04
2023-02-27T11:57:26.518Z,72.60
2023-02-27T11:58:26.420Z,72.07
2023-02-27T11:59:26.481Z,69.14
2023-02-27T12:00:26.374Z,69.50
2023-02-27T12:01:26.475Z,70.52
2023-02-27T12:02:26.425Z,73.45
2023-02-27T12:03:26.256Z,73.73
2023-02-27T12:04:26.256Z,72.07
2023-02-27T12:05:26.248Z,73.44
2023-02-27T12:06:26.288Z,70.63
2023-02-27T12:07:26.180Z,70.57
2023-02-27T12:08:26.246Z,73.59
2023-02-27T12:09:26.268Z,69.25
2023-02-27T12:10:26.219Z,72.44
2023-02-27T12:11:26.155Z,72.61
2023-02-27T12:12:26.192Z,71.62
2023-02-27T12:13:26.226Z,71.35
2023-02-27T12:14:26.163Z,68.36
2023-02-27T12:15:26.114Z,71.57
2023-02-27T12:16:26.693Z,73.62
2023-02-27T12:17:26.172Z,71.80
2023-02-27T12:18:26.140Z,68.69
2023-02-27T12:19:26.085Z,71.72
2023-02-27T12:20:26.198Z,71.04
2023-02-27T12:21:26.108Z,73.87
2023-02-27T12:22:26.054Z,70.70
2023-02-27T12:23:26.041Z,72.52
2023-02-27T12:24:26.118Z,72.12
2023-02-27T12:25:26.051Z,71.40
2023-02-27T12:26:26.499Z,71.03
2023-02-27T12:27:26.234Z,72.63
2023-02-27T12:28:26.052Z,70.21
2023-02-27T12:29:25.962Z,72.72
2023-02-27T12:30:26.372Z,73.66
2023-02-27T12:31:26.597Z,72.49
2023-02-27T12:32:26.181Z,73.48
2023-02-27T12:33:26.131Z,74.85
2023-02-27T12:34:25.994Z,73.88
2023-02-27T12:35:26.286Z,73.80
2023-02-27T12:36:25.921Z,72.76
2023-02-27T12:37:25.943Z,73.42
2023-02-27T12:38:25.930Z,74.07
2023-02-27T12:39:25.880Z,72.31
2023-02-27T12:40:25.857Z,73.58
2023-02-27T12:41:26.291Z,72.32
2023-02-27T12:42:25.858Z,72.65
2023-02-27T12:43:25.885Z,71.31
2023-02-27T12:44:25.804Z,73.55
2023-02-27T12:45:25.994Z,72.53
2023-02-27T12:46:25.803Z,72.58
2023-02-27T12:47:25.771Z,73.74
2023-02-27T12:48:25.799Z,74.19
2023-02-27T12:49:25.715Z,72.24
2023-02-27T12:50:25.793Z,73.62
2023-02-27T12:51:26.192Z,74.81
2023-02-27T12:52:26.091Z,69.83
2023-02-27T12:53:25.792Z,72.18
2023-02-27T12:54:25.946Z,73.94
2023-02-27T12:55:26.094Z,73.18
2023-02-27T12:56:25.670Z,72.23
2023-02-27T12:57:25.737Z,72.36
2023-02-27T12:58:25.698Z,71.89
2023-02-27T12:59:25.751Z,71.54
2023-02-27T13:00:25.608Z,72.93
2023-02-27T13:01:26.268Z,72.37
2023-02-27T13:02:25.757Z,73.03
2023-02-27T13:03:25.661Z,73.19
2023-02-27T13:04:25.582Z,72.24
2023-02-27T13:05:25.898Z,72.50
2023-02-27T13:06:25.655Z,72.18
2023-02-27T13:07:25.808Z,69.24
2023-02-27T13:08:25.612Z,72.44
2023-02-27T13:09:25.722Z,74.01
2023-02-27T13:10:26.637Z,72.21
2023-02-27T13:11:26.293Z,72.58
2023-02-27T13:12:27.005Z,74.24
2023-02-27T13:13:25.909Z,73.26
2023-02-27T13:14:25.774Z,74.08
2023-02-27T13:15:25.513Z,73.19
2023-02-27T13:16:25.765Z,72.48
2023-02-27T13:17:25.479Z,72.62
2023-02-27T13:18:25.543Z,72.99
2023-02-27T13:19:25.478Z,73.24
2023-02-27T13:20:25.602Z,73.45
2023-02-27T13:21:25.632Z,72.06
2023-02-27T13:22:25.451Z,73.15
2023-02-27T13:23:25.406Z,70.34
2023-02-27T13:24:25.423Z,74.35
2023-02-27T13:25:25.384Z,71.86
2023-02-27T13:26:25.380Z,73.40
2023-02-27T13:27:25.378Z,71.93
2023-02-27T13:28:25.562Z,71.02
2023-02-27T13:29:25.397Z,73.18
2023-02-27T13:30:25.267Z,73.80
2023-02-27T13:31:25.412Z,72.28
2023-02-27T13:32:36.536Z,73.28
2023-02-27T13:33:27.316Z,72.02
2023-02-27T13:34:25.320Z,73.61
2023-02-27T13:35:25.286Z,73.19
2023-02-27T13:36:25.236Z,74.32
2023-02-27T13:37:25.715Z,74.47
2023-02-27T13:38:25.218Z,73.76
2023-02-27T13:39:25.264Z,72.78
2023-02-27T13:40:25.300Z,73.48
2023-02-27T13:41:25.231Z,73.95
2023-02-27T13:42:25.224Z,72.64
2023-02-27T13:43:25.189Z,73.94
2023-02-27T13:44:25.164Z,73.84
2023-02-27T13:45:25.126Z,75.55
2023-02-27T13:46:25.310Z,75.28
2023-02-27T13:47:25.115Z,73.78
2023-02-27T13:48:25.116Z,73.40
2023-02-27T13:49:29.243Z,75.44
2023-02-27T13:50:26.036Z,72.74
2023-02-27T13:51:25.337Z,73.71
2023-02-27T13:52:25.035Z,72.48
2023-02-27T13:53:25.049Z,74.14
2023-02-27T13:54:25.180Z,73.34
2023-02-27T13:55:25.081Z,73.07
2023-02-27T13:56:25.073Z,76.14
2023-02-27T13:57:25.089Z,73.62
2023-02-27T13:58:24.995Z,73.14
2023-02-27T13:59:24.957Z,75.42
2023-02-27T14:00:25.039Z,73.04
2023-02-27T14:01:25.057Z,71.71
2023-02-27T14:02:25.027Z,74.28
2023-02-27T14:03:24.973Z,73.77
2023-02-27T14:04:24.941Z,71.93
2023-02-27T14:05:25.014Z,72.50
2023-02-27T14:06:24.897Z,73.37
2023-02-27T14:07:24.890Z,70.02
2023-02-27T14:08:24.947Z,72.86
2023-02-27T14:09:24.859Z,71.53
2023-02-27T14:10:24.913Z,72.44
2023-02-27T14:11:24.912Z,72.54
2023-02-27T14:12:27.088Z,75.17
2023-02-27T14:13:24.877Z,73.72
2023-02-27T14:14:24.909Z,73.47
2023-02-27T14:15:24.825Z,72.78
2023-02-27T14:16:24.829Z,72.00
2023-02-27T14:17:24.783Z,73.43
2023-02-27T14:18:33.594Z,74.75
2023-02-27T14:19:27.005Z,75.10
2023-02-27T14:20:24.739Z,74.37
2023-02-27T14:21:25.076Z,72.78
2023-02-27T14:22:24.747Z,74.02
2023-02-27T14:23:24.753Z,74.49
2023-02-27T14:24:24.648Z,73.63
2023-02-27T14:25:24.701Z,74.53
2023-02-27T14:26:24.846Z,70.68
2023-02-27T14:27:24.711Z,73.90
2023-02-27T14:28:24.732Z,74.50
2023-02-27T14:29:24.767Z,72.31
2023-02-27T14:30:24.576Z,73.29
2023-02-27T14:31:24.647Z,74.30
2023-02-27T14:32:24.678Z,73.51
2023-02-27T14:33:39.172Z,76.42
2023-02-27T14:34:26.561Z,73.14
2023-02-27T14:35:24.662Z,74.58
2023-02-27T14:36:24.619Z,74.91
2023-02-27T14:37:24.564Z,74.27
2023-02-27T14:38:24.579Z,74.68
2023-02-27T14:39:24.583Z,72.56
2023-02-27T14:40:29.684Z,76.34
2023-02-27T14:41:26.754Z,75.65
2023-02-27T14:42:24.548Z,73.39
2023-02-27T14:43:24.432Z,74.95
2023-02-27T14:44:24.427Z,75.37
2023-02-27T14:45:24.679Z,74.16
2023-02-27T14:46:24.499Z,75.06
2023-02-27T14:47:24.437Z,74.76
2023-02-27T14:48:24.442Z,73.91
2023-02-27T14:49:24.405Z,74.63
2023-02-27T14:50:24.427Z,74.45
2023-02-27T14:51:24.393Z,71.32
2023-02-27T14:52:24.385Z,74.26
2023-02-27T14:53:24.422Z,75.52
2023-02-27T14:54:24.376Z,73.65
2023-02-27T14:55:24.376Z,73.97
2023-02-27T14:56:24.326Z,74.41
2023-02-27T14:57:25.738Z,73.52
2023-02-27T14:58:24.339Z,72.80
2023-02-27T14:59:24.320Z,72.97
2023-02-27T15:00:24.284Z,73.15
2023-02-27T15:01:24.326Z,74.53
2023-02-27T15:02:24.296Z,73.55
2023-02-27T15:03:24.316Z,74.16
2023-02-27T15:04:24.326Z,74.36
2023-02-27T15:05:24.277Z,76.02
2023-02-27T15:06:24.239Z,76.06
2023-02-27T15:07:24.197Z,74.38
2023-02-27T15:08:24.168Z,73.48
2023-02-27T15:09:24.177Z,73.38
2023-02-27T15:10:24.950Z,74.49
2023-02-27T15:11:24.179Z,74.35
2023-02-27T15:12:25.147Z,73.83
2023-02-27T15:13:24.206Z,74.19
2023-02-27T15:14:24.200Z,73.39
2023-02-27T15:15:24.191Z,73.49
2023-02-27T15:16:24.162Z,75.46
2023-02-27T15:17:24.055Z,73.82
2023-02-27T15:18:24.058Z,73.87
2023-02-27T15:19:24.042Z,74.76
2023-02-27T15:20:24.075Z,75.06
2023-02-27T15:21:24.080Z,75.68
2023-02-27T15:22:38.042Z,74.34
2023-02-27T15:23:26.056Z,71.53
2023-02-27T15:24:24.092Z,73.79
2023-02-27T15:25:24.021Z,74.03
2023-02-27T15:26:23.970Z,74.56
2023-02-27T15:27:24.013Z,74.99
2023-02-27T15:28:23.952Z,72.71
2023-02-27T15:29:23.956Z,73.54
2023-02-27T15:30:23.958Z,75.67
2023-02-27T15:31:24.189Z,75.20
2023-02-27T15:32:23.956Z,74.75
2023-02-27T15:33:23.890Z,76.22
2023-02-27T15:34:23.875Z,74.70
2023-02-27T15:35:23.941Z,73.66
2023-02-27T15:36:23.915Z,74.23
2023-02-27T15:37:23.879Z,73.23
2023-02-27T15:38:23.871Z,73.31
2023-02-27T15:39:23.827Z,74.83
2023-02-27T15:40:23.863Z,74.78
2023-02-27T15:41:23.868Z,74.36
2023-02-27T15:42:23.790Z,74.84
2023-02-27T15:43:23.798Z,74.11
2023-02-27T15:44:23.796Z,74.24
2023-02-27T15:45:23.777Z,74.61
2023-02-27T15:46:23.759Z,73.94
2023-02-27T15:47:23.775Z,73.08
2023-02-27T15:48:23.753Z,76.31
2023-02-27T15:49:23.731Z,72.46
2023-02-27T15:50:23.700Z,73.84
2023-02-27T15:51:23.696Z,73.96
2023-02-27T15:52:23.701Z,73.19
2023-02-27T15:53:23.646Z,73.57
2023-02-27T15:54:23.802Z,73.26
2023-02-27T15:55:23.648Z,74.14
2023-02-27T15:56:23.624Z,76.19
2023-02-27T15:57:23.642Z,76.37
2023-02-27T15:58:23.635Z,73.21
2023-02-27T15:59:23.612Z,75.03
2023-02-27T16:00:23.615Z,76.24
2023-02-27T16:01:23.717Z,74.03
2023-02-27T16:02:23.579Z,74.78
2023-02-27T16:03:23.603Z,74.87
2023-02-27T16:04:23.487Z,72.22
2023-02-27T16:05:23.529Z,72.02
2023-02-27T16:06:23.618Z,74.53
2023-02-27T16:07:24.571Z,73.76
2023-02-27T16:08:23.508Z,72.77
2023-02-27T16:09:23.447Z,72.46
2023-02-27T16:10:23.524Z,72.48
2023-02-27T16:11:23.483Z,73.31
2023-02-27T16:12:23.509Z,74.61
2023-02-27T16:13:23.475Z,74.62
2023-02-27T16:14:25.558Z,74.68
2023-02-27T16:15:23.370Z,73.29
2023-02-27T16:16:23.442Z,73.32
2023-02-27T16:17:23.441Z,74.18
2023-02-27T16:18:23.442Z,72.67
2023-02-27T16:19:23.480Z,73.93
2023-02-27T16:20:23.397Z,76.62
2023-02-27T16:21:23.388Z,72.22
2023-02-27T16:22:23.367Z,72.98
2023-02-27T16:23:23.372Z,74.59
2023-02-27T16:24:23.375Z,73.91
2023-02-27T16:25:23.310Z,74.57
2023-02-27T16:26:23.323Z,75.23
2023-02-27T16:27:23.375Z,74.52
2023-02-27T16:28:23.282Z,74.37
2023-02-27T16:29:23.317Z,75.08
2023-02-27T16:30:23.262Z,73.40
2023-02-27T16:31:23.291Z,73.62
2023-02-27T16:32:23.273Z,73.04
2023-02-27T16:33:23.252Z,73.98
2023-02-27T16:34:24.667Z,73.87
2023-02-27T16:35:23.243Z,74.31
2023-02-27T16:36:23.319Z,74.39
2023-02-27T16:37:23.249Z,72.87
2023-02-27T16:38:23.141Z,74.34
2023-02-27T16:39:23.272Z,72.70
2023-02-27T16:40:23.272Z,75.73
2023-02-27T16:41:23.323Z,73.90
2023-02-27T16:42:23.148Z,74.07
2023-02-27T16:43:23.080Z,75.03
2023-02-27T16:44:23.074Z,75.00
2023-02-27T16:45:23.141Z,73.71
2023-02-27T16:46:23.081Z,74.44
2023-02-27T16:47:23.090Z,73.05
2023-02-27T16:48:23.097Z,74.25
2023-02-27T16:49:23.055Z,76.37
2023-02-27T16:50:23.076Z,75.00
2023-02-27T16:51:23.045Z,73.15
2023-02-27T16:52:22.977Z,73.89
2023-02-27T16:53:23.003Z,73.75
2023-02-27T16:54:22.981Z,72.45
2023-02-27T16:55:23.888Z,73.44
2023-02-27T16:56:35.902Z,74.04
2023-02-27T16:57:24.986Z,74.37
2023-02-27T16:58:23.026Z,74.75
2023-02-27T16:59:23.053Z,74.89
2023-02-27T17:00:22.947Z,74.74
2023-02-27T17:01:23.036Z,74.35
2023-02-27T17:02:22.951Z,73.50
2023-02-27T17:03:22.873Z,75.62
2023-02-27T17:04:25.935Z,71.47
2023-02-27T17:05:23.891Z,70.94
2023-02-27T17:06:22.868Z,72.48
2023-02-27T17:07:23.434Z,74.77
2023-02-27T17:08:22.890Z,73.54
2023-02-27T17:09:22.873Z,72.09
2023-02-27T17:10:22.857Z,71.75
2023-02-27T17:11:22.829Z,74.99
2023-02-27T17:12:22.836Z,72.74
2023-02-27T17:13:22.750Z,72.93
2023-02-27T17:14:23.816Z,74.00
2023-02-27T17:15:22.804Z,73.80
2023-02-27T17:16:22.874Z,74.08
2023-02-27T17:17:22.786Z,74.45
2023-02-27T17:18:22.811Z,76.28
2023-02-27T17:19:22.743Z,71.49
2023-02-27T17:20:22.758Z,72.41
2023-02-27T17:21:22.760Z,74.04
2023-02-27T17:22:22.709Z,72.03
2023-02-27T17:23:22.682Z,73.08
2023-02-27T17:24:22.730Z,69.95
2023-02-27T17:25:22.687Z,70.51
2023-02-27T17:26:22.724Z,70.41
2023-02-27T17:27:22.740Z,75.33
2023-02-27T17:28:22.657Z,73.18
2023-02-27T17:29:22.615Z,73.60
2023-02-27T17:30:22.728Z,73.84
2023-02-27T17:31:23.007Z,71.64
2023-02-27T17:32:22.700Z,69.13
2023-02-27T17:33:22.590Z,71.79
2023-02-27T17:34:22.557Z,70.31
2023-02-27T17:35:22.569Z,74.14
2023-02-27T17:36:22.589Z,73.82
2023-02-27T17:37:22.597Z,72.13
2023-02-27T17:38:22.639Z,71.89
2023-02-27T17:39:22.537Z,72.93
2023-02-27T17:40:22.548Z,68.96
2023-02-27T17:41:22.502Z,73.65
2023-02-27T17:42:22.496Z,71.51
2023-02-27T17:43:22.524Z,71.13
2023-02-27T17:44:22.550Z,73.42
2023-02-27T17:45:22.482Z,71.89
2023-02-27T17:46:22.493Z,69.17
2023-02-27T17:47:22.446Z,69.65
2023-02-27T17:48:22.428Z,71.64
2023-02-27T17:49:22.502Z,71.14
2023-02-27T17:50:22.452Z,70.34
2023-02-27T17:51:23.429Z,71.97
2023-02-27T17:52:22.405Z,72.14
2023-02-27T17:53:22.423Z,73.61
2023-02-27T17:54:22.353Z,73.20
2023-02-27T17:55:22.356Z,70.50
2023-02-27T17:56:22.363Z,70.20
2023-02-27T17:57:22.350Z,68.90
2023-02-27T17:58:22.364Z,69.83
2023-02-27T17:59:22.359Z,69.19
2023-02-27T18:00:22.325Z,71.46
2023-02-27T18:01:22.323Z,72.19
2023-02-27T18:02:22.362Z,69.57
2023-02-27T18:03:22.271Z,69.57
2023-02-27T18:04:22.268Z,70.51
2023-02-27T18:05:22.273Z,70.78
2023-02-27T18:06:22.263Z,71.51